Terminal Aerodrome Forecast
Issued by NWS

Current Version | Previous Version | Text Only | Print | Product List | Glossary On
Versions: 1 2 3 4 5 6 7 8 9 10 11 12 13 14 15
000
FTUS43 KJKL 221100
TAFSJS
TAF
KSJS 221133Z 2212/2312 VRB03KT P6SM BKN030
     FM221600 VRB03KT P6SM SCT015 SCT035
     FM221800 VRB04KT P6SM FEW040
     FM230600 00000KT 3SM BR SKC=

USA.gov is the U.S. government's official web portal to all federal, state and local government web resources and services.